sensor_id;sensor_type;location;lat;lon;timestamp;temperature;humidity
35746;DHT22;21870;42.812;74.628;2023-08-24T00:01:18;25.60;80.60
35746;DHT22;21870;42.812;74.628;2023-08-24T00:03:44;25.50;80.80
35746;DHT22;21870;42.812;74.628;2023-08-24T00:06:14;25.50;80.90
35746;DHT22;21870;42.812;74.628;2023-08-24T00:08:40;25.50;81.00
35746;DHT22;21870;42.812;74.628;2023-08-24T00:11:07;25.40;81.30
35746;DHT22;21870;42.812;74.628;2023-08-24T00:13:33;25.40;81.40
35746;DHT22;21870;42.812;74.628;2023-08-24T00:15:59;25.30;81.40
35746;DHT22;21870;42.812;74.628;2023-08-24T00:18:25;25.30;81.50
35746;DHT22;21870;42.812;74.628;2023-08-24T00:20:51;25.20;81.30
35746;DHT22;21870;42.812;74.628;2023-08-24T00:23:17;25.20;81.20
35746;DHT22;21870;42.812;74.628;2023-08-24T00:25:44;25.20;81.40
35746;DHT22;21870;42.812;74.628;2023-08-24T00:28:10;25.20;81.30
35746;DHT22;21870;42.812;74.628;2023-08-24T00:30:37;25.20;81.40
35746;DHT22;21870;42.812;74.628;2023-08-24T00:33:03;25.10;81.60
35746;DHT22;21870;42.812;74.628;2023-08-24T00:35:30;25.10;81.70
35746;DHT22;21870;42.812;74.628;2023-08-24T00:37:56;25.10;81.60
35746;DHT22;21870;42.812;74.628;2023-08-24T00:40:23;25.10;81.80
35746;DHT22;21870;42.812;74.628;2023-08-24T00:42:50;25.20;80.70
35746;DHT22;21870;42.812;74.628;2023-08-24T00:45:17;25.30;80.00
35746;DHT22;21870;42.812;74.628;2023-08-24T00:47:46;25.40;79.60
35746;DHT22;21870;42.812;74.628;2023-08-24T00:50:12;25.40;79.20
35746;DHT22;21870;42.812;74.628;2023-08-24T00:52:41;25.50;78.20
35746;DHT22;21870;42.812;74.628;2023-08-24T00:55:08;25.70;77.80
35746;DHT22;21870;42.812;74.628;2023-08-24T00:57:38;25.70;77.90
35746;DHT22;21870;42.812;74.628;2023-08-24T01:00:06;25.80;77.70
35746;DHT22;21870;42.812;74.628;2023-08-24T01:02:36;25.80;77.60
35746;DHT22;21870;42.812;74.628;2023-08-24T01:05:03;25.90;77.50
35746;DHT22;21870;42.812;74.628;2023-08-24T01:07:36;25.90;77.70
35746;DHT22;21870;42.812;74.628;2023-08-24T01:10:04;26.00;78.00
35746;DHT22;21870;42.812;74.628;2023-08-24T01:17:38;26.10;77.40
35746;DHT22;21870;42.812;74.628;2023-08-24T01:20:05;26.10;77.50
35746;DHT22;21870;42.812;74.628;2023-08-24T01:22:44;26.20;77.30
35746;DHT22;21870;42.812;74.628;2023-08-24T01:25:18;26.20;77.30
35746;DHT22;21870;42.812;74.628;2023-08-24T01:27:47;26.30;77.40
35746;DHT22;21870;42.812;74.628;2023-08-24T01:30:14;26.50;77.50
35746;DHT22;21870;42.812;74.628;2023-08-24T01:32:40;26.60;77.20
35746;DHT22;21870;42.812;74.628;2023-08-24T01:35:09;26.70;77.10
35746;DHT22;21870;42.812;74.628;2023-08-24T01:37:35;26.90;77.30
35746;DHT22;21870;42.812;74.628;2023-08-24T01:42:52;27.20;76.70
35746;DHT22;21870;42.812;74.628;2023-08-24T01:45:22;27.30;76.80
35746;DHT22;21870;42.812;74.628;2023-08-24T01:47:50;27.40;77.00
35746;DHT22;21870;42.812;74.628;2023-08-24T01:50:18;27.50;77.10
35746;DHT22;21870;42.812;74.628;2023-08-24T01:52:44;27.50;76.70
35746;DHT22;21870;42.812;74.628;2023-08-24T01:55:11;27.70;76.70
35746;DHT22;21870;42.812;74.628;2023-08-24T01:57:40;27.80;76.90
35746;DHT22;21870;42.812;74.628;2023-08-24T02:00:07;27.90;76.50
35746;DHT22;21870;42.812;74.628;2023-08-24T02:02:35;28.10;76.40
35746;DHT22;21870;42.812;74.628;2023-08-24T02:05:01;28.20;76.10
35746;DHT22;21870;42.812;74.628;2023-08-24T02:07:29;28.40;76.00
35746;DHT22;21870;42.812;74.628;2023-08-24T02:09:55;28.50;75.30
35746;DHT22;21870;42.812;74.628;2023-08-24T02:12:21;28.70;75.50
35746;DHT22;21870;42.812;74.628;2023-08-24T02:14:47;28.70;75.30
35746;DHT22;21870;42.812;74.628;2023-08-24T02:17:13;28.70;75.30
35746;DHT22;21870;42.812;74.628;2023-08-24T02:19:40;28.70;75.30
35746;DHT22;21870;42.812;74.628;2023-08-24T02:22:09;28.60;75.70
35746;DHT22;21870;42.812;74.628;2023-08-24T02:24:35;28.50;75.50
35746;DHT22;21870;42.812;74.628;2023-08-24T02:27:01;28.40;76.30
35746;DHT22;21870;42.812;74.628;2023-08-24T02:29:27;28.30;77.10
35746;DHT22;21870;42.812;74.628;2023-08-24T02:31:53;28.20;77.50
35746;DHT22;21870;42.812;74.628;2023-08-24T02:34:19;28.10;77.90
35746;DHT22;21870;42.812;74.628;2023-08-24T02:36:45;28.10;78.50
35746;DHT22;21870;42.812;74.628;2023-08-24T02:39:11;28.10;78.40
35746;DHT22;21870;42.812;74.628;2023-08-24T02:41:38;28.10;78.20
35746;DHT22;21870;42.812;74.628;2023-08-24T02:44:04;28.10;78.40
35746;DHT22;21870;42.812;74.628;2023-08-24T02:46:30;28.20;78.40
35746;DHT22;21870;42.812;74.628;2023-08-24T02:48:56;28.20;78.10
35746;DHT22;21870;42.812;74.628;2023-08-24T02:51:22;28.20;77.50
35746;DHT22;21870;42.812;74.628;2023-08-24T02:53:49;28.30;77.50
35746;DHT22;21870;42.812;74.628;2023-08-24T02:56:16;28.30;77.50
35746;DHT22;21870;42.812;74.628;2023-08-24T02:58:42;28.30;79.20
35746;DHT22;21870;42.812;74.628;2023-08-24T03:01:08;28.10;83.80
35746;DHT22;21870;42.812;74.628;2023-08-24T03:03:35;27.70;87.30
35746;DHT22;21870;42.812;74.628;2023-08-24T03:06:04;27.60;85.20
35746;DHT22;21870;42.812;74.628;2023-08-24T03:08:32;27.60;88.70
35746;DHT22;21870;42.812;74.628;2023-08-24T03:10:59;27.60;86.50
35746;DHT22;21870;42.812;74.628;2023-08-24T03:13:26;27.50;86.40
35746;DHT22;21870;42.812;74.628;2023-08-24T03:15:52;27.50;87.10
35746;DHT22;21870;42.812;74.628;2023-08-24T03:18:19;27.70;88.60
35746;DHT22;21870;42.812;74.628;2023-08-24T03:20:46;27.60;88.80
35746;DHT22;21870;42.812;74.628;2023-08-24T03:23:12;27.60;88.20
35746;DHT22;21870;42.812;74.628;2023-08-24T03:25:40;27.80;86.20
35746;DHT22;21870;42.812;74.628;2023-08-24T03:28:07;27.90;87.10
35746;DHT22;21870;42.812;74.628;2023-08-24T03:30:38;28.10;86.00
35746;DHT22;21870;42.812;74.628;2023-08-24T03:33:05;28.20;84.10
35746;DHT22;21870;42.812;74.628;2023-08-24T03:35:32;28.30;87.30
35746;DHT22;21870;42.812;74.628;2023-08-24T03:37:58;28.30;82.40
35746;DHT22;21870;42.812;74.628;2023-08-24T03:40:24;28.30;80.40
35746;DHT22;21870;42.812;74.628;2023-08-24T03:42:50;28.40;81.70
35746;DHT22;21870;42.812;74.628;2023-08-24T03:45:17;28.40;80.90
35746;DHT22;21870;42.812;74.628;2023-08-24T03:47:43;28.40;80.40
35746;DHT22;21870;42.812;74.628;2023-08-24T03:50:09;28.40;80.30
35746;DHT22;21870;42.812;74.628;2023-08-24T03:52:35;28.40;81.60
35746;DHT22;21870;42.812;74.628;2023-08-24T03:55:01;28.40;87.00
35746;DHT22;21870;42.812;74.628;2023-08-24T03:57:27;28.50;81.50
35746;DHT22;21870;42.812;74.628;2023-08-24T03:59:53;28.50;87.60
35746;DHT22;21870;42.812;74.628;2023-08-24T04:02:19;28.70;83.30
35746;DHT22;21870;42.812;74.628;2023-08-24T04:04:46;28.90;81.20
35746;DHT22;21870;42.812;74.628;2023-08-24T04:07:12;29.20;79.60
35746;DHT22;21870;42.812;74.628;2023-08-24T04:09:38;29.40;80.00
35746;DHT22;21870;42.812;74.628;2023-08-24T04:12:04;29.50;81.80
35746;DHT22;21870;42.812;74.628;2023-08-24T04:14:31;29.50;81.90
35746;DHT22;21870;42.812;74.628;2023-08-24T04:16:57;29.60;82.20
35746;DHT22;21870;42.812;74.628;2023-08-24T04:19:24;29.80;83.40
35746;DHT22;21870;42.812;74.628;2023-08-24T04:21:50;30.10;85.30
35746;DHT22;21870;42.812;74.628;2023-08-24T04:24:16;30.50;86.70
35746;DHT22;21870;42.812;74.628;2023-08-24T04:26:42;31.00;80.50
35746;DHT22;21870;42.812;74.628;2023-08-24T04:29:07;31.30;81.50
35746;DHT22;21870;42.812;74.628;2023-08-24T04:31:34;31.60;79.00
35746;DHT22;21870;42.812;74.628;2023-08-24T04:34:00;31.70;77.50
35746;DHT22;21870;42.812;74.628;2023-08-24T04:36:26;31.70;76.40
35746;DHT22;21870;42.812;74.628;2023-08-24T04:38:52;31.40;75.20
35746;DHT22;21870;42.812;74.628;2023-08-24T04:41:18;31.30;74.80
35746;DHT22;21870;42.812;74.628;2023-08-24T04:43:44;31.30;75.80
35746;DHT22;21870;42.812;74.628;2023-08-24T04:46:10;31.40;76.20
35746;DHT22;21870;42.812;74.628;2023-08-24T04:48:36;31.30;78.30
35746;DHT22;21870;42.812;74.628;2023-08-24T04:51:02;31.50;78.10
35746;DHT22;21870;42.812;74.628;2023-08-24T04:53:28;31.70;78.10
35746;DHT22;21870;42.812;74.628;2023-08-24T04:55:54;31.80;78.50
35746;DHT22;21870;42.812;74.628;2023-08-24T04:58:20;32.00;77.40
35746;DHT22;21870;42.812;74.628;2023-08-24T05:00:48;32.20;77.90
35746;DHT22;21870;42.812;74.628;2023-08-24T05:03:14;32.30;79.20
35746;DHT22;21870;42.812;74.628;2023-08-24T05:05:40;32.40;78.80
35746;DHT22;21870;42.812;74.628;2023-08-24T05:08:06;32.60;75.10
35746;DHT22;21870;42.812;74.628;2023-08-24T05:10:35;32.70;76.30
35746;DHT22;21870;42.812;74.628;2023-08-24T05:13:01;32.80;77.60
35746;DHT22;21870;42.812;74.628;2023-08-24T05:15:28;32.90;77.50
35746;DHT22;21870;42.812;74.628;2023-08-24T05:17:54;33.00;76.00
35746;DHT22;21870;42.812;74.628;2023-08-24T05:20:27;33.10;79.00
35746;DHT22;21870;42.812;74.628;2023-08-24T05:22:54;33.30;76.80
35746;DHT22;21870;42.812;74.628;2023-08-24T05:25:26;33.50;78.70
35746;DHT22;21870;42.812;74.628;2023-08-24T05:27:55;33.70;76.20
35746;DHT22;21870;42.812;74.628;2023-08-24T05:30:21;33.90;73.90
35746;DHT22;21870;42.812;74.628;2023-08-24T05:32:47;34.00;75.10
35746;DHT22;21870;42.812;74.628;2023-08-24T05:35:13;34.30;76.90
35746;DHT22;21870;42.812;74.628;2023-08-24T05:37:39;34.60;76.20
35746;DHT22;21870;42.812;74.628;2023-08-24T05:40:05;34.70;73.10
35746;DHT22;21870;42.812;74.628;2023-08-24T05:42:31;34.70;69.90
35746;DHT22;21870;42.812;74.628;2023-08-24T05:44:57;34.80;69.50
35746;DHT22;21870;42.812;74.628;2023-08-24T05:47:23;35.00;68.20
35746;DHT22;21870;42.812;74.628;2023-08-24T05:49:49;35.10;68.50
35746;DHT22;21870;42.812;74.628;2023-08-24T05:52:15;35.30;69.90
35746;DHT22;21870;42.812;74.628;2023-08-24T05:54:41;35.40;68.20
35746;DHT22;21870;42.812;74.628;2023-08-24T05:57:07;35.40;70.70
35746;DHT22;21870;42.812;74.628;2023-08-24T05:59:33;35.40;71.80
35746;DHT22;21870;42.812;74.628;2023-08-24T06:02:00;35.30;67.90
35746;DHT22;21870;42.812;74.628;2023-08-24T06:04:26;35.40;70.90
35746;DHT22;21870;42.812;74.628;2023-08-24T06:06:52;35.40;70.10
35746;DHT22;21870;42.812;74.628;2023-08-24T06:09:18;35.50;71.20
35746;DHT22;21870;42.812;74.628;2023-08-24T06:11:44;35.60;70.90
35746;DHT22;21870;42.812;74.628;2023-08-24T06:14:10;35.40;70.10
35746;DHT22;21870;42.812;74.628;2023-08-24T06:16:36;35.50;69.90
35746;DHT22;21870;42.812;74.628;2023-08-24T06:19:02;35.50;72.80
35746;DHT22;21870;42.812;74.628;2023-08-24T06:21:29;35.50;68.80
35746;DHT22;21870;42.812;74.628;2023-08-24T06:23:55;35.70;69.30
35746;DHT22;21870;42.812;74.628;2023-08-24T06:26:21;35.70;70.70
35746;DHT22;21870;42.812;74.628;2023-08-24T06:28:47;35.70;69.00
35746;DHT22;21870;42.812;74.628;2023-08-24T06:31:14;35.80;69.50
35746;DHT22;21870;42.812;74.628;2023-08-24T06:33:41;35.90;69.50
35746;DHT22;21870;42.812;74.628;2023-08-24T06:36:08;36.00;69.00
35746;DHT22;21870;42.812;74.628;2023-08-24T06:38:34;35.80;66.10
35746;DHT22;21870;42.812;74.628;2023-08-24T06:41:00;35.90;69.40
35746;DHT22;21870;42.812;74.628;2023-08-24T06:43:27;36.00;69.40
35746;DHT22;21870;42.812;74.628;2023-08-24T06:45:55;36.00;68.50
35746;DHT22;21870;42.812;74.628;2023-08-24T06:48:21;36.20;69.30
35746;DHT22;21870;42.812;74.628;2023-08-24T06:50:48;36.20;67.30
35746;DHT22;21870;42.812;74.628;2023-08-24T06:53:14;36.10;67.80
35746;DHT22;21870;42.812;74.628;2023-08-24T06:55:43;36.00;67.30
35746;DHT22;21870;42.812;74.628;2023-08-24T06:58:08;35.90;69.30
35746;DHT22;21870;42.812;74.628;2023-08-24T07:00:35;35.90;68.40
35746;DHT22;21870;42.812;74.628;2023-08-24T07:03:01;35.90;69.10
35746;DHT22;21870;42.812;74.628;2023-08-24T07:05:28;35.90;70.20
35746;DHT22;21870;42.812;74.628;2023-08-24T07:07:54;36.00;68.00
35746;DHT22;21870;42.812;74.628;2023-08-24T07:10:20;36.20;68.60
35746;DHT22;21870;42.812;74.628;2023-08-24T07:12:46;36.30;67.40
35746;DHT22;21870;42.812;74.628;2023-08-24T07:15:13;36.30;67.90
35746;DHT22;21870;42.812;74.628;2023-08-24T07:17:39;36.40;69.40
35746;DHT22;21870;42.812;74.628;2023-08-24T07:20:06;36.10;70.50
35746;DHT22;21870;42.812;74.628;2023-08-24T07:22:34;36.10;70.60
35746;DHT22;21870;42.812;74.628;2023-08-24T07:25:04;36.10;71.30
35746;DHT22;21870;42.812;74.628;2023-08-24T07:27:34;36.20;71.00
35746;DHT22;21870;42.812;74.628;2023-08-24T07:30:01;36.30;71.30
35746;DHT22;21870;42.812;74.628;2023-08-24T07:32:31;36.50;69.50
35746;DHT22;21870;42.812;74.628;2023-08-24T07:34:57;36.50;69.60
35746;DHT22;21870;42.812;74.628;2023-08-24T07:37:26;36.20;69.80
35746;DHT22;21870;42.812;74.628;2023-08-24T07:39:52;36.20;69.80
35746;DHT22;21870;42.812;74.628;2023-08-24T07:42:21;36.10;70.30
35746;DHT22;21870;42.812;74.628;2023-08-24T07:44:50;36.20;69.30
35746;DHT22;21870;42.812;74.628;2023-08-24T07:47:16;35.80;67.40
35746;DHT22;21870;42.812;74.628;2023-08-24T07:49:42;35.40;67.20
35746;DHT22;21870;42.812;74.628;2023-08-24T07:52:11;35.20;67.50
35746;DHT22;21870;42.812;74.628;2023-08-24T07:54:38;35.10;67.10
35746;DHT22;21870;42.812;74.628;2023-08-24T07:57:07;35.10;67.60
35746;DHT22;21870;42.812;74.628;2023-08-24T07:59:33;35.00;67.30
35746;DHT22;21870;42.812;74.628;2023-08-24T08:01:59;34.70;67.10
35746;DHT22;21870;42.812;74.628;2023-08-24T08:04:25;34.50;67.50
35746;DHT22;21870;42.812;74.628;2023-08-24T08:06:51;34.30;68.00
35746;DHT22;21870;42.812;74.628;2023-08-24T08:09:18;33.90;68.70
35746;DHT22;21870;42.812;74.628;2023-08-24T08:11:44;33.90;68.30
35746;DHT22;21870;42.812;74.628;2023-08-24T08:14:11;34.10;68.90
35746;DHT22;21870;42.812;74.628;2023-08-24T08:16:37;34.40;68.70
35746;DHT22;21870;42.812;74.628;2023-08-24T08:19:03;34.70;68.50
35746;DHT22;21870;42.812;74.628;2023-08-24T08:21:29;34.80;67.60
35746;DHT22;21870;42.812;74.628;2023-08-24T08:23:56;35.00;67.20
35746;DHT22;21870;42.812;74.628;2023-08-24T08:26:22;35.00;66.80
35746;DHT22;21870;42.812;74.628;2023-08-24T08:28:48;34.90;66.90
35746;DHT22;21870;42.812;74.628;2023-08-24T08:31:13;35.10;68.30
35746;DHT22;21870;42.812;74.628;2023-08-24T08:33:45;35.00;67.20
35746;DHT22;21870;42.812;74.628;2023-08-24T08:36:11;34.80;69.20
35746;DHT22;21870;42.812;74.628;2023-08-24T08:38:37;34.80;68.60
35746;DHT22;21870;42.812;74.628;2023-08-24T08:41:04;34.30;69.30
35746;DHT22;21870;42.812;74.628;2023-08-24T08:43:30;34.10;70.70
35746;DHT22;21870;42.812;74.628;2023-08-24T08:45:58;34.10;70.40
35746;DHT22;21870;42.812;74.628;2023-08-24T08:48:24;33.60;70.20
35746;DHT22;21870;42.812;74.628;2023-08-24T08:50:52;33.40;69.90
35746;DHT22;21870;42.812;74.628;2023-08-24T08:53:25;33.10;70.40
35746;DHT22;21870;42.812;74.628;2023-08-24T08:55:55;33.00;70.30
35746;DHT22;21870;42.812;74.628;2023-08-24T08:58:23;33.40;69.80
35746;DHT22;21870;42.812;74.628;2023-08-24T09:00:51;33.50;69.90
35746;DHT22;21870;42.812;74.628;2023-08-24T09:03:18;33.60;69.90
35746;DHT22;21870;42.812;74.628;2023-08-24T09:05:45;33.80;69.60
35746;DHT22;21870;42.812;74.628;2023-08-24T09:08:17;33.90;69.00
35746;DHT22;21870;42.812;74.628;2023-08-24T09:10:44;34.00;68.70
35746;DHT22;21870;42.812;74.628;2023-08-24T09:13:10;34.40;69.40
35746;DHT22;21870;42.812;74.628;2023-08-24T09:15:36;34.50;68.60
35746;DHT22;21870;42.812;74.628;2023-08-24T09:18:03;34.70;68.20
35746;DHT22;21870;42.812;74.628;2023-08-24T09:20:30;34.80;67.30
35746;DHT22;21870;42.812;74.628;2023-08-24T09:22:56;34.70;67.30
35746;DHT22;21870;42.812;74.628;2023-08-24T09:25:25;34.90;67.40
35746;DHT22;21870;42.812;74.628;2023-08-24T09:28:02;35.10;67.20
35746;DHT22;21870;42.812;74.628;2023-08-24T09:30:34;35.20;67.00
35746;DHT22;21870;42.812;74.628;2023-08-24T09:33:09;35.30;66.50
35746;DHT22;21870;42.812;74.628;2023-08-24T09:35:36;35.50;66.70
35746;DHT22;21870;42.812;74.628;2023-08-24T09:40:45;35.50;66.40
35746;DHT22;21870;42.812;74.628;2023-08-24T09:43:14;35.60;66.20
35746;DHT22;21870;42.812;74.628;2023-08-24T09:45:53;35.80;66.10
35746;DHT22;21870;42.812;74.628;2023-08-24T09:48:20;35.90;66.10
35746;DHT22;21870;42.812;74.628;2023-08-24T09:50:51;36.00;65.70
35746;DHT22;21870;42.812;74.628;2023-08-24T09:53:21;36.20;66.20
35746;DHT22;21870;42.812;74.628;2023-08-24T09:56:01;36.30;65.10
35746;DHT22;21870;42.812;74.628;2023-08-24T09:58:27;36.50;65.00
35746;DHT22;21870;42.812;74.628;2023-08-24T10:00:54;36.70;64.50
35746;DHT22;21870;42.812;74.628;2023-08-24T10:03:30;36.60;65.20
35746;DHT22;21870;42.812;74.628;2023-08-24T10:05:57;36.80;65.40
35746;DHT22;21870;42.812;74.628;2023-08-24T10:08:28;37.00;64.50
35746;DHT22;21870;42.812;74.628;2023-08-24T10:10:56;37.10;64.70
35746;DHT22;21870;42.812;74.628;2023-08-24T10:13:48;37.10;63.60
35746;DHT22;21870;42.812;74.628;2023-08-24T10:16:16;36.70;64.30
35746;DHT22;21870;42.812;74.628;2023-08-24T10:18:44;36.70;64.90
35746;DHT22;21870;42.812;74.628;2023-08-24T10:21:11;36.80;64.50
35746;DHT22;21870;42.812;74.628;2023-08-24T10:23:37;36.90;65.60
35746;DHT22;21870;42.812;74.628;2023-08-24T10:26:09;37.10;64.60
35746;DHT22;21870;42.812;74.628;2023-08-24T10:28:36;37.20;67.40
35746;DHT22;21870;42.812;74.628;2023-08-24T10:31:03;37.10;64.60
35746;DHT22;21870;42.812;74.628;2023-08-24T10:33:30;37.00;63.10
35746;DHT22;21870;42.812;74.628;2023-08-24T10:35:58;37.00;65.00
35746;DHT22;21870;42.812;74.628;2023-08-24T10:38:25;37.10;67.00
35746;DHT22;21870;42.812;74.628;2023-08-24T10:40:52;36.90;66.50
35746;DHT22;21870;42.812;74.628;2023-08-24T10:43:18;36.90;67.40
35746;DHT22;21870;42.812;74.628;2023-08-24T10:46:00;36.80;66.50
35746;DHT22;21870;42.812;74.628;2023-08-24T10:53:46;36.60;67.50
35746;DHT22;21870;42.812;74.628;2023-08-24T10:56:15;36.70;65.90
35746;DHT22;21870;42.812;74.628;2023-08-24T10:58:42;36.80;65.70
35746;DHT22;21870;42.812;74.628;2023-08-24T11:04:32;36.60;64.80
35746;DHT22;21870;42.812;74.628;2023-08-24T11:06:59;36.50;66.50
35746;DHT22;21870;42.812;74.628;2023-08-24T11:09:46;36.40;67.60
35746;DHT22;21870;42.812;74.628;2023-08-24T11:12:14;36.30;67.30
35746;DHT22;21870;42.812;74.628;2023-08-24T11:14:51;36.30;64.60
35746;DHT22;21870;42.812;74.628;2023-08-24T11:17:21;36.30;64.30
35746;DHT22;21870;42.812;74.628;2023-08-24T11:19:56;36.30;64.10
35746;DHT22;21870;42.812;74.628;2023-08-24T11:22:22;36.20;64.10
35746;DHT22;21870;42.812;74.628;2023-08-24T11:24:49;36.10;65.60
35746;DHT22;21870;42.812;74.628;2023-08-24T11:27:15;35.80;63.90
35746;DHT22;21870;42.812;74.628;2023-08-24T11:29:42;35.90;64.20
35746;DHT22;21870;42.812;74.628;2023-08-24T11:32:08;35.80;64.70
35746;DHT22;21870;42.812;74.628;2023-08-24T11:34:34;35.70;65.10
35746;DHT22;21870;42.812;74.628;2023-08-24T11:37:01;35.60;65.80
35746;DHT22;21870;42.812;74.628;2023-08-24T11:39:27;35.60;66.10
35746;DHT22;21870;42.812;74.628;2023-08-24T11:44:23;35.50;64.40
35746;DHT22;21870;42.812;74.628;2023-08-24T11:46:50;35.40;65.50
35746;DHT22;21870;42.812;74.628;2023-08-24T11:49:16;35.30;65.20
35746;DHT22;21870;42.812;74.628;2023-08-24T11:51:42;35.10;65.50
35746;DHT22;21870;42.812;74.628;2023-08-24T11:54:09;34.80;67.30
35746;DHT22;21870;42.812;74.628;2023-08-24T11:56:43;34.90;65.00
35746;DHT22;21870;42.812;74.628;2023-08-24T11:59:16;34.80;65.50
35746;DHT22;21870;42.812;74.628;2023-08-24T12:01:42;34.60;65.10
35746;DHT22;21870;42.812;74.628;2023-08-24T12:04:09;34.50;65.10
35746;DHT22;21870;42.812;74.628;2023-08-24T12:06:35;34.30;65.30
35746;DHT22;21870;42.812;74.628;2023-08-24T12:09:05;34.20;65.40
35746;DHT22;21870;42.812;74.628;2023-08-24T12:11:36;34.10;65.60
35746;DHT22;21870;42.812;74.628;2023-08-24T12:14:02;34.10;65.80
35746;DHT22;21870;42.812;74.628;2023-08-24T12:16:32;34.00;65.70
35746;DHT22;21870;42.812;74.628;2023-08-24T12:18:59;33.90;66.70
35746;DHT22;21870;42.812;74.628;2023-08-24T12:21:29;33.90;66.20
35746;DHT22;21870;42.812;74.628;2023-08-24T12:24:03;33.80;65.90
35746;DHT22;21870;42.812;74.628;2023-08-24T12:26:35;33.70;66.40
35746;DHT22;21870;42.812;74.628;2023-08-24T12:29:06;33.60;67.80
35746;DHT22;21870;42.812;74.628;2023-08-24T12:31:36;33.60;66.50
35746;DHT22;21870;42.812;74.628;2023-08-24T12:34:07;33.50;67.60
35746;DHT22;21870;42.812;74.628;2023-08-24T12:36:37;33.40;69.50
35746;DHT22;21870;42.812;74.628;2023-08-24T12:39:04;33.40;70.40
35746;DHT22;21870;42.812;74.628;2023-08-24T12:41:31;33.30;68.90
35746;DHT22;21870;42.812;74.628;2023-08-24T12:43:58;33.30;70.40
35746;DHT22;21870;42.812;74.628;2023-08-24T12:46:24;33.30;70.20
35746;DHT22;21870;42.812;74.628;2023-08-24T12:48:51;33.10;69.80
35746;DHT22;21870;42.812;74.628;2023-08-24T12:51:17;33.10;69.00
35746;DHT22;21870;42.812;74.628;2023-08-24T12:53:43;33.10;70.20
35746;DHT22;21870;42.812;74.628;2023-08-24T12:56:09;33.00;75.40
35746;DHT22;21870;42.812;74.628;2023-08-24T12:58:35;32.80;73.30
35746;DHT22;21870;42.812;74.628;2023-08-24T13:01:01;32.70;70.70
35746;DHT22;21870;42.812;74.628;2023-08-24T13:03:28;32.70;70.00
35746;DHT22;21870;42.812;74.628;2023-08-24T13:05:54;32.70;70.90
35746;DHT22;21870;42.812;74.628;2023-08-24T13:08:20;32.50;70.00
35746;DHT22;21870;42.812;74.628;2023-08-24T13:10:46;32.50;71.00
35746;DHT22;21870;42.812;74.628;2023-08-24T13:13:12;32.50;74.80
35746;DHT22;21870;42.812;74.628;2023-08-24T13:15:38;32.30;73.40
35746;DHT22;21870;42.812;74.628;2023-08-24T13:18:04;32.20;72.40
35746;DHT22;21870;42.812;74.628;2023-08-24T13:20:30;32.10;73.60
35746;DHT22;21870;42.812;74.628;2023-08-24T13:22:56;31.90;73.60
35746;DHT22;21870;42.812;74.628;2023-08-24T13:25:22;31.90;74.00
35746;DHT22;21870;42.812;74.628;2023-08-24T13:27:48;31.80;74.00
35746;DHT22;21870;42.812;74.628;2023-08-24T13:30:14;31.70;71.80
35746;DHT22;21870;42.812;74.628;2023-08-24T13:32:40;31.60;71.40
35746;DHT22;21870;42.812;74.628;2023-08-24T13:35:06;31.50;71.50
35746;DHT22;21870;42.812;74.628;2023-08-24T13:37:34;31.40;72.10
35746;DHT22;21870;42.812;74.628;2023-08-24T13:40:00;31.40;73.20
35746;DHT22;21870;42.812;74.628;2023-08-24T13:42:26;31.30;74.20
35746;DHT22;21870;42.812;74.628;2023-08-24T13:44:52;31.30;74.60
35746;DHT22;21870;42.812;74.628;2023-08-24T13:47:18;31.10;72.80
35746;DHT22;21870;42.812;74.628;2023-08-24T13:49:47;31.00;72.80
35746;DHT22;21870;42.812;74.628;2023-08-24T13:52:14;30.80;72.80
35746;DHT22;21870;42.812;74.628;2023-08-24T13:54:42;30.80;72.70
35746;DHT22;21870;42.812;74.628;2023-08-24T13:57:08;30.70;72.50
35746;DHT22;21870;42.812;74.628;2023-08-24T13:59:34;30.60;72.80
35746;DHT22;21870;42.812;74.628;2023-08-24T14:02:00;30.60;78.00
35746;DHT22;21870;42.812;74.628;2023-08-24T14:04:26;30.60;77.00
35746;DHT22;21870;42.812;74.628;2023-08-24T14:06:52;30.50;76.30
35746;DHT22;21870;42.812;74.628;2023-08-24T14:09:18;30.40;74.20
35746;DHT22;21870;42.812;74.628;2023-08-24T14:11:44;30.20;73.60
35746;DHT22;21870;42.812;74.628;2023-08-24T14:14:10;30.00;73.70
35746;DHT22;21870;42.812;74.628;2023-08-24T14:16:36;30.00;74.70
35746;DHT22;21870;42.812;74.628;2023-08-24T14:19:02;29.90;76.90
35746;DHT22;21870;42.812;74.628;2023-08-24T14:21:28;29.80;78.20
35746;DHT22;21870;42.812;74.628;2023-08-24T14:23:54;29.70;76.90
35746;DHT22;21870;42.812;74.628;2023-08-24T14:26:20;29.40;77.70
35746;DHT22;21870;42.812;74.628;2023-08-24T14:28:48;29.30;75.80
35746;DHT22;21870;42.812;74.628;2023-08-24T14:31:16;29.20;74.80
35746;DHT22;21870;42.812;74.628;2023-08-24T14:33:42;29.20;74.50
35746;DHT22;21870;42.812;74.628;2023-08-24T14:36:09;29.20;74.70
35746;DHT22;21870;42.812;74.628;2023-08-24T14:38:38;29.00;74.70
35746;DHT22;21870;42.812;74.628;2023-08-24T14:41:05;28.90;75.40
35746;DHT22;21870;42.812;74.628;2023-08-24T14:43:32;28.90;76.10
35746;DHT22;21870;42.812;74.628;2023-08-24T14:45:58;28.80;76.80
35746;DHT22;21870;42.812;74.628;2023-08-24T14:48:24;28.70;77.20
35746;DHT22;21870;42.812;74.628;2023-08-24T14:50:50;28.60;77.20
35746;DHT22;21870;42.812;74.628;2023-08-24T14:53:16;28.50;77.40
35746;DHT22;21870;42.812;74.628;2023-08-24T14:55:42;28.40;77.50
35746;DHT22;21870;42.812;74.628;2023-08-24T14:58:08;28.40;77.60
35746;DHT22;21870;42.812;74.628;2023-08-24T15:00:34;28.40;77.60
35746;DHT22;21870;42.812;74.628;2023-08-24T15:03:01;28.30;77.40
35746;DHT22;21870;42.812;74.628;2023-08-24T15:05:28;28.30;77.50
35746;DHT22;21870;42.812;74.628;2023-08-24T15:07:53;28.30;77.60
35746;DHT22;21870;42.812;74.628;2023-08-24T15:10:19;28.20;77.50
35746;DHT22;21870;42.812;74.628;2023-08-24T15:12:45;28.20;77.50
35746;DHT22;21870;42.812;74.628;2023-08-24T15:15:14;28.10;77.60
35746;DHT22;21870;42.812;74.628;2023-08-24T15:17:43;28.00;77.60
35746;DHT22;21870;42.812;74.628;2023-08-24T15:20:13;28.00;77.80
35746;DHT22;21870;42.812;74.628;2023-08-24T15:22:42;27.90;77.90
35746;DHT22;21870;42.812;74.628;2023-08-24T15:25:08;27.90;77.80
35746;DHT22;21870;42.812;74.628;2023-08-24T15:27:35;27.80;77.70
35746;DHT22;21870;42.812;74.628;2023-08-24T15:30:01;27.80;77.70
35746;DHT22;21870;42.812;74.628;2023-08-24T15:32:31;27.90;77.60
35746;DHT22;21870;42.812;74.628;2023-08-24T15:34:58;27.80;77.50
35746;DHT22;21870;42.812;74.628;2023-08-24T15:37:25;27.80;78.40